SECU/CUE METAR and TAF weather

Enter ICAO airport designator
Station Type Date Time Source
SECU METAR 2021/10/24 21:23 UTC NOAA

SECU 242123Z 23017KT 9999 TS FEW030CB BKN040 19/12 Q1022


Station Type Date Time Source
SECU Decoded METAR 2021/10/24 21:23 UTC NOAA

Cuenca / Mariscal Lamar, Ecuador (SECU) 02-53S 078-59W 2531M
Oct 24, 2021 - 05:23 PM EDT / 2021.10.24 2123 UTC
Wind: from the SW (230 degrees) at 20 MPH (17 KT):0
Visibility: greater than 7 mile(s):0
Sky conditions: mostly cloudy
Weather: thunder; Cumulonimbus clouds observed
Temperature: 66 F (19 C)
Dew Point: 53 F (12 C)
Relative Humidity: 63%
Pressure (altimeter): 30.18 in. Hg (1022 hPa)
ob: SECU 242123Z 23017KT 9999 TS FEW030CB BKN040 19/12 Q1022
cycle: 21

Station Type Date Time Source
SECU TAF 2019/10/28 06:45 UTC NOAA

TAF SECU 280435Z 2806/2906 VRB03KT 9999 FEW010 BKN033
BECMG 2814/2815 05005KT BKN040 BKN100 TX20/2819Z TN12/2811Z

Example: see airport list